Terminal Aerodrome Forecast
Issued by NWS Spokane, WA

Home | Current Version | Previous Version | Text Only | Print | Product List | Glossary On
Versions: 1 2 3 4 5 6 7 8 9 10 11 12 13 14 15 16 17 18 19 20 21 22 23 24 25 26 27 28 29 30 31 32 33 34 35
305
FTUS46 KOTX 121137
TAFEAT
TAF
KEAT 121137Z 1212/1312 32003KT 2SM BR VCSH OVC025
      TEMPO 1212/1216 1/2SM FG
     FM121600 28003KT 6SM -RA BKN025 OVC030
     FM121800 15003KT P6SM BKN018 OVC050
     FM122100 13003KT P6SM -RA OVC025=

USA.gov is the U.S. government's official web portal to all federal, state and local government web resources and services.